createdAt,value
2023-01-22T00:00:37.203Z,5.40
2023-01-22T00:03:10.164Z,4.13
2023-01-22T00:05:42.678Z,6.37
2023-01-22T00:08:10.846Z,7.43
2023-01-22T00:10:40.409Z,6.37
2023-01-22T00:13:08.664Z,6.67
2023-01-22T00:15:43.147Z,7.73
2023-01-22T00:18:12.684Z,7.30
2023-01-22T00:20:41.773Z,6.17
2023-01-22T00:23:10.337Z,7.03
2023-01-22T00:25:38.252Z,6.10
2023-01-22T00:28:09.665Z,9.87
2023-01-22T00:30:40.681Z,6.87
2023-01-22T00:33:12.933Z,6.53
2023-01-22T00:35:41.384Z,9.17
2023-01-22T00:38:09.218Z,6.43
2023-01-22T00:40:37.475Z,9.80
2023-01-22T00:43:05.777Z,7.97
2023-01-22T00:45:37.000Z,7.93
2023-01-22T00:48:05.422Z,8.83
2023-01-22T00:50:35.239Z,10.37
2023-01-22T00:53:03.934Z,6.93
2023-01-22T00:55:35.727Z,8.97
2023-01-22T00:58:06.884Z,8.50
2023-01-22T01:00:45.485Z,8.03
2023-01-22T01:03:40.136Z,7.63
2023-01-22T01:06:14.016Z,8.13
2023-01-22T01:08:45.989Z,7.13
2023-01-22T01:11:19.250Z,8.17
2023-01-22T01:13:51.650Z,8.23
2023-01-22T01:16:21.345Z,10.17
2023-01-22T01:18:49.800Z,8.47
2023-01-22T01:21:19.357Z,8.50
2023-01-22T01:23:48.010Z,7.07
2023-01-22T01:26:20.499Z,5.50
2023-01-22T01:28:49.258Z,8.60
2023-01-22T01:31:18.562Z,8.10
2023-01-22T01:33:47.623Z,5.57
2023-01-22T01:36:47.061Z,7.90
2023-01-22T01:39:15.008Z,6.60
2023-01-22T01:41:48.310Z,5.50
2023-01-22T01:44:18.944Z,7.77
2023-01-22T01:46:52.621Z,10.87
2023-01-22T01:49:34.692Z,6.03
2023-01-22T01:52:09.438Z,6.20
2023-01-22T01:54:44.751Z,5.77
2023-01-22T01:57:17.918Z,6.70
2023-01-22T01:59:47.984Z,6.63
2023-01-22T02:02:16.854Z,6.90
2023-01-22T02:04:45.121Z,5.47
2023-01-22T02:07:14.912Z,6.10
2023-01-22T02:09:43.819Z,5.40
2023-01-22T02:12:12.042Z,5.83
2023-01-22T02:14:44.425Z,5.90
2023-01-22T02:17:19.279Z,4.13
2023-01-22T02:19:47.300Z,5.87
2023-01-22T02:22:21.391Z,7.60
2023-01-22T02:24:53.366Z,6.03
2023-01-22T02:27:21.388Z,6.70
2023-01-22T02:29:49.422Z,7.20
2023-01-22T02:32:22.422Z,6.93
2023-01-22T02:34:51.207Z,5.80
2023-01-22T02:37:24.055Z,8.17
2023-01-22T02:39:53.180Z,7.23
2023-01-22T02:42:21.414Z,6.70
2023-01-22T02:44:53.077Z,8.00
2023-01-22T02:47:27.819Z,7.23
2023-01-22T02:49:59.660Z,8.27
2023-01-22T02:52:30.471Z,6.53
2023-01-22T02:55:04.969Z,8.47
2023-01-22T02:57:36.194Z,5.50
2023-01-22T03:00:13.230Z,10.27
2023-01-22T03:02:43.434Z,10.23
2023-01-22T03:05:17.824Z,8.23
2023-01-22T03:07:51.389Z,7.80
2023-01-22T03:10:27.174Z,8.03
2023-01-22T03:13:14.813Z,8.00
2023-01-22T03:16:03.875Z,6.73
2023-01-22T03:18:50.710Z,7.87
2023-01-22T03:21:20.460Z,10.43
2023-01-22T03:23:53.952Z,8.60
2023-01-22T03:26:23.942Z,11.57
2023-01-22T03:28:53.377Z,8.40
2023-01-22T03:31:23.799Z,10.97
2023-01-22T03:33:51.875Z,11.07
2023-01-22T03:36:23.056Z,11.60
2023-01-22T03:38:57.580Z,11.40
2023-01-22T03:41:25.872Z,9.90
2023-01-22T03:43:56.450Z,11.30
2023-01-22T03:46:24.567Z,11.70
2023-01-22T03:48:53.586Z,8.80
2023-01-22T03:51:24.136Z,10.07
2023-01-22T03:53:57.263Z,14.23
2023-01-22T03:56:25.982Z,8.10
2023-01-22T03:58:54.263Z,8.30
2023-01-22T04:01:29.900Z,10.07
2023-01-22T04:03:58.530Z,8.50
2023-01-22T04:06:26.655Z,8.93
2023-01-22T04:08:56.351Z,9.60
2023-01-22T04:11:25.053Z,8.73
2023-01-22T04:13:55.516Z,9.73
2023-01-22T04:16:23.774Z,10.50
2023-01-22T04:18:52.097Z,9.70
2023-01-22T04:21:19.988Z,11.17
2023-01-22T04:23:47.940Z,9.87
2023-01-22T04:26:19.048Z,11.87
2023-01-22T04:28:47.104Z,9.80
2023-01-22T04:31:15.054Z,8.73
2023-01-22T04:33:43.704Z,9.37
2023-01-22T04:36:15.628Z,8.40
2023-01-22T04:38:43.649Z,7.53
2023-01-22T04:41:15.249Z,9.97
2023-01-22T04:43:44.934Z,9.80
2023-01-22T04:46:13.183Z,8.10
2023-01-22T04:48:41.389Z,9.57
2023-01-22T04:51:12.279Z,7.70
2023-01-22T04:53:40.717Z,7.37
2023-01-22T04:56:13.915Z,8.73
2023-01-22T04:58:43.805Z,9.57
2023-01-22T05:01:19.491Z,10.20
2023-01-22T05:03:51.189Z,8.93
2023-01-22T05:06:19.198Z,8.63
2023-01-22T05:08:47.589Z,10.30
2023-01-22T05:11:15.841Z,9.03
2023-01-22T05:13:43.921Z,7.37
2023-01-22T05:16:14.105Z,7.83
2023-01-22T05:18:43.647Z,8.07
2023-01-22T05:21:14.492Z,5.93
2023-01-22T05:23:48.515Z,7.07
2023-01-22T05:26:19.445Z,7.10
2023-01-22T05:28:47.498Z,5.77
2023-01-22T05:31:18.257Z,6.77
2023-01-22T05:33:46.540Z,6.83
2023-01-22T05:36:24.069Z,7.87
2023-01-22T05:38:55.268Z,6.43
2023-01-22T05:41:24.061Z,6.73
2023-01-22T05:43:52.299Z,6.47
2023-01-22T05:46:21.986Z,7.13
2023-01-22T05:48:51.022Z,7.57
2023-01-22T05:51:20.413Z,5.87
2023-01-22T05:53:48.433Z,5.23
2023-01-22T05:56:29.860Z,6.27
2023-01-22T05:59:05.077Z,6.30
2023-01-22T06:01:39.056Z,6.57
2023-01-22T06:04:07.811Z,6.57
2023-01-22T06:06:45.347Z,7.53
2023-01-22T06:09:15.048Z,6.43
2023-01-22T06:11:49.491Z,7.13
2023-01-22T06:14:21.579Z,6.67
2023-01-22T06:17:01.385Z,6.67
2023-01-22T06:19:35.131Z,7.37
2023-01-22T06:22:08.103Z,6.03
2023-01-22T06:24:36.702Z,8.73
2023-01-22T06:27:05.280Z,6.23
2023-01-22T06:29:38.144Z,7.77
2023-01-22T06:32:10.174Z,7.27
2023-01-22T06:34:41.611Z,8.83
2023-01-22T06:37:13.306Z,6.70
2023-01-22T06:39:43.495Z,7.43
2023-01-22T06:42:12.087Z,6.33
2023-01-22T06:44:40.494Z,8.40
2023-01-22T06:47:11.193Z,8.87
2023-01-22T06:49:42.185Z,7.80
2023-01-22T06:52:15.654Z,8.33
2023-01-22T06:54:43.568Z,9.07
2023-01-22T06:57:11.387Z,9.17
2023-01-22T06:59:39.955Z,7.40
2023-01-22T07:02:11.092Z,8.00
2023-01-22T07:04:44.822Z,9.17
2023-01-22T07:07:13.162Z,8.53
2023-01-22T07:09:41.452Z,9.13
2023-01-22T07:12:10.665Z,7.90
2023-01-22T07:14:40.537Z,7.47
2023-01-22T07:17:12.352Z,7.73
2023-01-22T07:19:42.326Z,6.83
2023-01-22T07:22:10.911Z,7.23
2023-01-22T07:24:42.902Z,8.27
2023-01-22T07:27:11.153Z,8.07
2023-01-22T07:29:39.469Z,8.83
2023-01-22T07:32:09.877Z,8.33
2023-01-22T07:34:38.489Z,8.93
2023-01-22T07:37:06.653Z,9.10
2023-01-22T07:39:38.229Z,7.87
2023-01-22T07:42:06.451Z,8.83
2023-01-22T07:44:38.489Z,7.60
2023-01-22T07:47:07.217Z,8.10
2023-01-22T07:49:37.120Z,7.80
2023-01-22T07:52:05.793Z,8.63
2023-01-22T07:54:36.313Z,6.93
2023-01-22T07:57:05.519Z,7.90
2023-01-22T07:59:34.476Z,7.60
2023-01-22T08:02:03.611Z,8.27
2023-01-22T08:04:31.734Z,6.10
2023-01-22T08:07:01.901Z,8.20
2023-01-22T08:09:30.080Z,6.70
2023-01-22T08:11:58.259Z,7.67
2023-01-22T08:14:26.604Z,7.87
2023-01-22T08:16:54.640Z,6.70
2023-01-22T08:19:23.094Z,7.50
2023-01-22T08:21:52.022Z,8.00
2023-01-22T08:24:22.070Z,7.00
2023-01-22T08:26:50.054Z,7.53
2023-01-22T08:29:18.342Z,6.80
2023-01-22T08:31:46.752Z,6.53
2023-01-22T08:34:14.957Z,7.07
2023-01-22T08:36:43.541Z,5.70
2023-01-22T08:39:13.543Z,6.70
2023-01-22T08:41:42.845Z,5.27
2023-01-22T08:44:16.047Z,6.17
2023-01-22T08:46:44.475Z,6.10
2023-01-22T08:49:12.668Z,6.47
2023-01-22T08:51:40.698Z,5.23
2023-01-22T08:54:08.619Z,7.63
2023-01-22T08:56:37.263Z,6.13
2023-01-22T08:59:08.002Z,7.13
2023-01-22T09:01:36.641Z,7.60
2023-01-22T09:04:09.153Z,5.60
2023-01-22T09:06:38.829Z,6.37
2023-01-22T09:09:07.904Z,6.10
2023-01-22T09:11:36.413Z,5.47
2023-01-22T09:14:04.601Z,5.73
2023-01-22T09:16:35.234Z,5.50
2023-01-22T09:19:03.307Z,5.93
2023-01-22T09:21:31.638Z,5.70
2023-01-22T09:23:59.668Z,5.83
2023-01-22T09:26:28.174Z,6.33
2023-01-22T09:28:58.287Z,4.67
2023-01-22T09:31:26.538Z,4.60
2023-01-22T09:33:56.703Z,4.53
2023-01-22T09:36:24.783Z,5.27
2023-01-22T09:38:52.916Z,6.30
2023-01-22T09:41:26.667Z,5.97
2023-01-22T09:43:59.452Z,5.70
2023-01-22T09:46:34.639Z,4.43
2023-01-22T09:49:10.367Z,5.63
2023-01-22T09:51:38.571Z,5.80
2023-01-22T09:54:08.833Z,5.50
2023-01-22T09:56:41.864Z,6.03
2023-01-22T09:59:17.467Z,5.43
2023-01-22T10:01:51.860Z,5.40
2023-01-22T10:04:39.194Z,5.10
2023-01-22T10:07:14.430Z,5.03
2023-01-22T10:09:52.529Z,6.40
2023-01-22T10:12:20.496Z,6.57
2023-01-22T10:14:48.406Z,6.63
2023-01-22T10:17:22.732Z,7.93
2023-01-22T10:19:59.997Z,6.03
2023-01-22T10:22:30.416Z,6.17
2023-01-22T10:24:58.735Z,7.67
2023-01-22T10:27:37.170Z,6.17
2023-01-22T10:30:20.652Z,6.53
2023-01-22T10:33:01.188Z,5.80
2023-01-22T10:35:43.179Z,6.87
2023-01-22T10:38:23.357Z,7.03
2023-01-22T10:40:55.196Z,7.43
2023-01-22T10:43:35.151Z,7.10
2023-01-22T10:46:08.234Z,7.43
2023-01-22T10:48:36.259Z,7.93
2023-01-22T10:51:17.309Z,7.47
2023-01-22T10:53:52.200Z,6.57
2023-01-22T10:56:30.849Z,5.60
2023-01-22T10:59:03.393Z,7.00
2023-01-22T11:01:36.656Z,6.37
2023-01-22T11:04:27.293Z,5.73
2023-01-22T11:07:02.609Z,5.97
2023-01-22T11:09:40.024Z,5.50
2023-01-22T11:13:07.395Z,5.67
2023-01-22T11:15:57.536Z,6.10
2023-01-22T11:21:32.944Z,6.17
2023-01-22T11:24:23.850Z,6.50
2023-01-22T11:27:35.525Z,8.27
2023-01-22T11:30:34.787Z,6.67
2023-01-22T11:33:11.921Z,5.87
2023-01-22T11:35:57.949Z,6.87
2023-01-22T11:38:41.739Z,6.00
2023-01-22T11:41:36.137Z,6.17
2023-01-22T11:44:35.880Z,7.23
2023-01-22T11:47:39.978Z,6.77
2023-01-22T11:50:27.404Z,14.33
2023-01-22T11:53:14.847Z,7.10
2023-01-22T11:56:23.501Z,8.27
2023-01-22T11:59:05.607Z,7.93
2023-01-22T12:01:53.922Z,9.10
2023-01-22T12:04:56.174Z,9.37
2023-01-22T12:08:03.654Z,10.07
2023-01-22T12:10:54.890Z,8.87
2023-01-22T12:13:44.395Z,8.63
2023-01-22T12:16:21.562Z,8.73
2023-01-22T12:19:30.595Z,11.93
2023-01-22T12:22:11.694Z,10.13
2023-01-22T12:27:35.064Z,12.23
2023-01-22T12:30:17.966Z,9.73
2023-01-22T12:33:06.929Z,10.33
2023-01-22T12:36:16.743Z,10.50
2023-01-22T12:38:54.381Z,12.87
2023-01-22T12:41:52.609Z,12.37
2023-01-22T12:44:38.464Z,9.87
2023-01-22T12:47:17.563Z,11.17
2023-01-22T12:50:04.793Z,11.30
2023-01-22T12:52:36.757Z,12.30
2023-01-22T12:55:23.787Z,20.60
2023-01-22T12:58:10.502Z,12.00
2023-01-22T13:00:48.677Z,12.90
2023-01-22T13:03:31.758Z,13.13
2023-01-22T13:06:19.392Z,13.13
2023-01-22T13:08:50.499Z,13.70
2023-01-22T13:11:30.929Z,10.37
2023-01-22T13:14:15.280Z,11.47
2023-01-22T13:16:53.087Z,11.90
2023-01-22T13:19:44.943Z,11.60
2023-01-22T13:22:17.412Z,12.33
2023-01-22T13:25:10.225Z,13.57
2023-01-22T13:27:40.135Z,11.97
2023-01-22T13:30:21.539Z,11.47
2023-01-22T13:32:52.957Z,11.30
2023-01-22T13:35:21.101Z,13.20
2023-01-22T13:40:59.605Z,11.13
2023-01-22T13:43:29.519Z,12.27
2023-01-22T13:46:06.939Z,11.33
2023-01-22T13:48:37.222Z,12.50
2023-01-22T13:51:17.471Z,11.37
2023-01-22T13:53:54.673Z,13.77
2023-01-22T13:56:30.407Z,14.17
2023-01-22T13:59:27.504Z,14.13
2023-01-22T14:01:55.869Z,11.47
2023-01-22T14:04:38.949Z,13.03
2023-01-22T14:07:07.422Z,14.77
2023-01-22T14:09:38.725Z,14.40
2023-01-22T14:12:19.811Z,16.23
2023-01-22T14:14:48.735Z,13.63
2023-01-22T14:17:28.868Z,18.00
2023-01-22T14:19:56.935Z,15.40
2023-01-22T14:22:25.594Z,13.63
2023-01-22T14:24:56.813Z,14.50
2023-01-22T14:27:28.839Z,16.57
2023-01-22T14:30:00.490Z,14.10
2023-01-22T14:32:28.503Z,14.00
2023-01-22T14:34:56.497Z,17.13
2023-01-22T14:37:25.722Z,14.17
2023-01-22T14:39:55.370Z,14.77
2023-01-22T14:42:28.529Z,19.30
2023-01-22T14:44:59.633Z,13.80
2023-01-22T14:47:30.797Z,16.33
2023-01-22T14:49:58.755Z,15.13
2023-01-22T14:52:26.988Z,14.93
2023-01-22T14:54:56.497Z,15.77
2023-01-22T14:57:25.025Z,14.83
2023-01-22T14:59:55.769Z,15.90
2023-01-22T15:02:23.922Z,17.50
2023-01-22T15:04:51.943Z,14.30
2023-01-22T15:07:19.825Z,15.83
2023-01-22T15:09:49.299Z,14.53
2023-01-22T15:12:21.027Z,16.70
2023-01-22T15:14:49.339Z,15.07
2023-01-22T15:17:17.186Z,16.10
2023-01-22T15:19:45.125Z,15.20
2023-01-22T15:22:19.482Z,18.27
2023-01-22T15:24:47.399Z,16.30
2023-01-22T15:27:20.499Z,16.07
2023-01-22T15:29:50.484Z,17.70
2023-01-22T15:32:18.856Z,18.73
2023-01-22T15:34:47.046Z,19.37
2023-01-22T15:37:19.501Z,18.83
2023-01-22T15:39:47.458Z,19.63
2023-01-22T15:42:15.297Z,25.93
2023-01-22T15:44:48.091Z,18.43
2023-01-22T15:50:11.121Z,24.67
2023-01-22T15:52:39.085Z,19.87
2023-01-22T15:55:08.388Z,21.17
2023-01-22T15:57:36.882Z,21.73
2023-01-22T16:00:07.941Z,19.70
2023-01-22T16:02:35.937Z,18.87
2023-01-22T16:05:04.128Z,22.57
2023-01-22T16:07:32.333Z,22.50
2023-01-22T16:10:01.134Z,19.90
2023-01-22T16:12:30.230Z,19.47
2023-01-22T16:14:58.078Z,17.83
2023-01-22T16:17:27.532Z,20.63
2023-01-22T16:19:56.934Z,20.77
2023-01-22T16:22:30.932Z,21.70
2023-01-22T16:25:01.709Z,21.73
2023-01-22T16:27:29.768Z,22.37
2023-01-22T16:30:06.910Z,24.20
2023-01-22T16:32:36.391Z,24.47
2023-01-22T16:35:04.523Z,20.57
2023-01-22T16:37:32.480Z,23.90
2023-01-22T16:40:00.489Z,25.17
2023-01-22T16:42:28.305Z,21.73
2023-01-22T16:44:56.207Z,23.00
2023-01-22T16:47:24.114Z,21.43
2023-01-22T16:49:54.513Z,23.00
2023-01-22T16:52:23.290Z,24.57
2023-01-22T16:54:53.324Z,21.43
2023-01-22T16:57:21.783Z,28.23
2023-01-22T16:59:50.633Z,24.97
2023-01-22T17:02:19.319Z,25.27
2023-01-22T17:04:48.363Z,26.40
2023-01-22T17:07:33.137Z,27.70
2023-01-22T17:10:05.544Z,24.57
2023-01-22T17:12:33.855Z,22.93
2023-01-22T17:15:01.980Z,21.63
2023-01-22T17:17:30.058Z,22.30
2023-01-22T17:19:58.724Z,23.10
2023-01-22T17:22:28.192Z,23.50
2023-01-22T17:24:58.277Z,25.60
2023-01-22T17:27:26.287Z,24.70
2023-01-22T17:29:54.480Z,23.93
2023-01-22T17:32:22.920Z,21.97
2023-01-22T17:34:51.027Z,22.03
2023-01-22T17:37:22.200Z,22.10
2023-01-22T17:39:52.973Z,22.27
2023-01-22T17:42:21.066Z,21.07
2023-01-22T17:44:50.566Z,19.80
2023-01-22T17:47:18.653Z,18.93
2023-01-22T17:49:49.203Z,19.03
2023-01-22T17:52:17.962Z,19.73
2023-01-22T17:54:46.329Z,19.27
2023-01-22T17:57:16.000Z,16.77
2023-01-22T17:59:44.011Z,15.93
2023-01-22T18:02:12.325Z,18.60
2023-01-22T18:04:40.228Z,18.20
2023-01-22T18:07:08.171Z,20.23
2023-01-22T18:09:36.447Z,19.83
2023-01-22T18:12:04.719Z,19.97
2023-01-22T18:14:36.449Z,17.40
2023-01-22T18:17:05.385Z,19.60
2023-01-22T18:19:33.831Z,19.33
2023-01-22T18:22:02.044Z,18.77
2023-01-22T18:24:31.620Z,21.87
2023-01-22T18:27:00.057Z,17.20
2023-01-22T18:29:28.315Z,18.23
2023-01-22T18:31:57.853Z,17.03
2023-01-22T18:34:25.679Z,15.80
2023-01-22T18:36:53.759Z,18.93
2023-01-22T18:39:22.325Z,17.27
2023-01-22T18:41:50.298Z,20.10
2023-01-22T18:44:19.960Z,19.60
2023-01-22T18:46:51.806Z,18.63
2023-01-22T18:49:22.863Z,16.53
2023-01-22T18:51:50.892Z,21.47
2023-01-22T18:54:19.238Z,18.50
2023-01-22T18:56:48.647Z,18.13
2023-01-22T18:59:17.399Z,19.53
2023-01-22T19:01:51.853Z,20.80
2023-01-22T19:04:23.090Z,18.17
2023-01-22T19:06:52.961Z,17.93
2023-01-22T19:09:22.142Z,20.90
2023-01-22T19:12:00.155Z,17.17
2023-01-22T19:14:28.300Z,20.20
2023-01-22T19:16:56.212Z,16.23
2023-01-22T19:19:27.263Z,18.53
2023-01-22T19:21:58.218Z,18.73
2023-01-22T19:24:28.462Z,18.27
2023-01-22T19:26:57.191Z,19.00
2023-01-22T19:29:29.554Z,17.87
2023-01-22T19:32:06.629Z,20.70
2023-01-22T19:34:36.063Z,16.07
2023-01-22T19:37:10.784Z,18.63
2023-01-22T19:39:41.581Z,18.60
2023-01-22T19:42:09.707Z,16.97
2023-01-22T19:44:43.134Z,18.40
2023-01-22T19:47:12.392Z,16.90
2023-01-22T19:49:42.532Z,18.43
2023-01-22T19:52:13.330Z,18.37
2023-01-22T19:54:50.385Z,17.43
2023-01-22T19:57:18.533Z,20.63
2023-01-22T19:59:49.059Z,19.17
2023-01-22T20:02:20.957Z,17.37
2023-01-22T20:04:50.377Z,17.07
2023-01-22T20:07:20.110Z,21.73
2023-01-22T20:12:43.288Z,18.97
2023-01-22T20:15:13.268Z,18.07
2023-01-22T20:17:41.978Z,16.63
2023-01-22T20:20:13.221Z,18.77
2023-01-22T20:22:47.786Z,19.37
2023-01-22T20:25:26.253Z,19.80
2023-01-22T20:27:54.276Z,16.30
2023-01-22T20:30:29.761Z,16.37
2023-01-22T20:32:57.751Z,18.87
2023-01-22T20:35:27.814Z,15.77
2023-01-22T20:37:56.004Z,19.83
2023-01-22T20:40:34.890Z,20.40
2023-01-22T20:43:03.135Z,18.17
2023-01-22T20:45:31.435Z,18.77
2023-01-22T20:47:59.530Z,18.57
2023-01-22T20:50:35.444Z,17.40
2023-01-22T20:53:06.366Z,19.93
2023-01-22T20:55:39.386Z,17.60
2023-01-22T20:58:11.148Z,20.53
2023-01-22T21:00:39.880Z,21.70
2023-01-22T21:03:10.676Z,19.53
2023-01-22T21:05:51.101Z,22.13
2023-01-22T21:08:19.440Z,21.43
2023-01-22T21:11:07.101Z,21.60
2023-01-22T21:13:40.130Z,20.93
2023-01-22T21:16:09.681Z,20.00
2023-01-22T21:18:42.445Z,19.17
2023-01-22T21:21:21.531Z,21.50
2023-01-22T21:23:51.241Z,21.10
2023-01-22T21:26:22.949Z,23.73
2023-01-22T21:28:51.626Z,22.67
2023-01-22T21:31:21.169Z,19.17
2023-01-22T21:34:02.914Z,19.47
2023-01-22T21:36:35.430Z,21.90
2023-01-22T21:39:05.510Z,22.50
2023-01-22T21:41:34.285Z,22.27
2023-01-22T21:44:19.805Z,21.53
2023-01-22T21:46:49.359Z,16.23
2023-01-22T21:49:20.668Z,18.47
2023-01-22T21:51:51.782Z,18.10
2023-01-22T21:54:39.218Z,17.50
2023-01-22T21:57:13.801Z,17.43
2023-01-22T21:59:41.935Z,19.23
2023-01-22T22:02:15.068Z,17.53
2023-01-22T22:04:43.364Z,17.70
2023-01-22T22:07:13.647Z,19.63
2023-01-22T22:09:42.379Z,19.60
2023-01-22T22:12:13.705Z,18.93
2023-01-22T22:14:42.132Z,17.73
2023-01-22T22:17:14.211Z,17.57
2023-01-22T22:19:42.232Z,18.70
2023-01-22T22:22:10.268Z,16.57
2023-01-22T22:24:41.839Z,18.40
2023-01-22T22:27:17.859Z,16.37
2023-01-22T22:29:45.865Z,17.33
2023-01-22T22:32:13.798Z,16.40
2023-01-22T22:34:43.360Z,16.57
2023-01-22T22:37:11.519Z,17.27
2023-01-22T22:39:41.418Z,16.20
2023-01-22T22:42:12.851Z,18.77
2023-01-22T22:44:43.267Z,18.00
2023-01-22T22:47:15.532Z,18.27
2023-01-22T22:49:46.662Z,17.33
2023-01-22T22:52:15.061Z,18.07
2023-01-22T22:54:44.519Z,16.20
2023-01-22T22:57:12.735Z,16.97
2023-01-22T22:59:40.806Z,18.10
2023-01-22T23:02:09.303Z,17.10
2023-01-22T23:04:37.503Z,16.03
2023-01-22T23:07:05.650Z,15.33
2023-01-22T23:09:33.601Z,18.03
2023-01-22T23:12:04.939Z,16.83
2023-01-22T23:14:32.979Z,17.07
2023-01-22T23:17:04.805Z,16.40
2023-01-22T23:19:33.728Z,20.83
2023-01-22T23:22:02.629Z,18.23
2023-01-22T23:24:32.193Z,19.13
2023-01-22T23:27:00.289Z,18.50
2023-01-22T23:29:29.609Z,16.07
2023-01-22T23:31:57.696Z,19.97
2023-01-22T23:34:25.906Z,18.53
2023-01-22T23:36:53.833Z,18.27
2023-01-22T23:39:22.894Z,18.53
2023-01-22T23:41:51.358Z,18.43
2023-01-22T23:44:19.542Z,16.10
2023-01-22T23:46:49.346Z,16.43
2023-01-22T23:49:17.488Z,19.93
2023-01-22T23:51:46.330Z,17.40
2023-01-22T23:54:14.368Z,19.90
2023-01-22T23:56:42.442Z,16.27
2023-01-22T23:59:11.571Z,20.43
